sensor_id;sensor_type;location;lat;lon;timestamp;temperature;humidity
79494;SHT31;68951;53.130;18.104;2023-05-10T00:01:00;9.41;51.42
79494;SHT31;68951;53.130;18.104;2023-05-10T00:03:27;9.39;51.48
79494;SHT31;68951;53.130;18.104;2023-05-10T00:05:53;9.37;51.50
79494;SHT31;68951;53.130;18.104;2023-05-10T00:08:20;9.36;51.58
79494;SHT31;68951;53.130;18.104;2023-05-10T00:10:47;9.34;51.64
79494;SHT31;68951;53.130;18.104;2023-05-10T00:13:15;9.38;51.60
79494;SHT31;68951;53.130;18.104;2023-05-10T00:15:42;9.40;51.63
79494;SHT31;68951;53.130;18.104;2023-05-10T00:18:09;9.39;51.63
79494;SHT31;68951;53.130;18.104;2023-05-10T00:20:36;9.39;51.67
79494;SHT31;68951;53.130;18.104;2023-05-10T00:23:03;9.37;51.64
79494;SHT31;68951;53.130;18.104;2023-05-10T00:25:29;9.36;51.68
79494;SHT31;68951;53.130;18.104;2023-05-10T00:27:56;9.34;51.69
79494;SHT31;68951;53.130;18.104;2023-05-10T00:30:23;9.32;51.70
79494;SHT31;68951;53.130;18.104;2023-05-10T00:32:51;9.29;51.76
79494;SHT31;68951;53.130;18.104;2023-05-10T00:35:18;9.28;51.80
79494;SHT31;68951;53.130;18.104;2023-05-10T00:37:45;9.27;51.80
79494;SHT31;68951;53.130;18.104;2023-05-10T00:40:12;9.28;51.80
79494;SHT31;68951;53.130;18.104;2023-05-10T00:42:39;9.27;51.82
79494;SHT31;68951;53.130;18.104;2023-05-10T00:45:07;9.27;51.89
79494;SHT31;68951;53.130;18.104;2023-05-10T00:47:34;9.26;51.90
79494;SHT31;68951;53.130;18.104;2023-05-10T00:50:01;9.27;51.93
79494;SHT31;68951;53.130;18.104;2023-05-10T00:52:29;9.28;51.99
79494;SHT31;68951;53.130;18.104;2023-05-10T00:54:56;9.29;52.00
79494;SHT31;68951;53.130;18.104;2023-05-10T00:57:23;9.31;52.00
79494;SHT31;68951;53.130;18.104;2023-05-10T00:59:51;9.31;52.00
79494;SHT31;68951;53.130;18.104;2023-05-10T01:02:18;9.30;52.06
79494;SHT31;68951;53.130;18.104;2023-05-10T01:04:45;9.32;52.10
79494;SHT31;68951;53.130;18.104;2023-05-10T01:07:12;9.34;52.10
79494;SHT31;68951;53.130;18.104;2023-05-10T01:09:39;9.35;52.10
79494;SHT31;68951;53.130;18.104;2023-05-10T01:12:06;9.36;52.10
79494;SHT31;68951;53.130;18.104;2023-05-10T01:14:33;9.36;52.10
79494;SHT31;68951;53.130;18.104;2023-05-10T01:17:02;9.36;52.12
79494;SHT31;68951;53.130;18.104;2023-05-10T01:19:32;9.37;52.18
79494;SHT31;68951;53.130;18.104;2023-05-10T01:28:00;9.39;52.20
79494;SHT31;68951;53.130;18.104;2023-05-10T01:31:03;9.33;52.20
79494;SHT31;68951;53.130;18.104;2023-05-10T01:34:13;9.28;52.30
79494;SHT31;68951;53.130;18.104;2023-05-10T01:36:57;9.26;52.36
79494;SHT31;68951;53.130;18.104;2023-05-10T01:39:58;9.25;52.45
79494;SHT31;68951;53.130;18.104;2023-05-10T01:42:45;9.25;52.55
79494;SHT31;68951;53.130;18.104;2023-05-10T01:45:30;9.26;52.62
79494;SHT31;68951;53.130;18.104;2023-05-10T01:48:09;9.21;52.70
79494;SHT31;68951;53.130;18.104;2023-05-10T01:50:39;9.19;52.79
79494;SHT31;68951;53.130;18.104;2023-05-10T01:53:10;9.19;52.86
79494;SHT31;68951;53.130;18.104;2023-05-10T01:55:49;9.16;52.93
79494;SHT31;68951;53.130;18.104;2023-05-10T01:58:21;9.15;53.02
79494;SHT31;68951;53.130;18.104;2023-05-10T02:00:53;9.17;53.10
79494;SHT31;68951;53.130;18.104;2023-05-10T02:03:22;9.18;53.14
79494;SHT31;68951;53.130;18.104;2023-05-10T02:05:52;9.18;53.22
79494;SHT31;68951;53.130;18.104;2023-05-10T02:08:21;9.19;53.26
79494;SHT31;68951;53.130;18.104;2023-05-10T02:10:51;9.18;53.30
79494;SHT31;68951;53.130;18.104;2023-05-10T02:13:23;9.17;53.38
79494;SHT31;68951;53.130;18.104;2023-05-10T02:15:53;9.10;53.43
79494;SHT31;68951;53.130;18.104;2023-05-10T02:18:23;9.04;53.50
79494;SHT31;68951;53.130;18.104;2023-05-10T02:20:53;8.98;53.58
79494;SHT31;68951;53.130;18.104;2023-05-10T02:23:22;8.96;53.63
79494;SHT31;68951;53.130;18.104;2023-05-10T02:25:50;8.95;53.70
79494;SHT31;68951;53.130;18.104;2023-05-10T02:28:21;8.91;53.78
79494;SHT31;68951;53.130;18.104;2023-05-10T02:30:52;8.87;53.84
79494;SHT31;68951;53.130;18.104;2023-05-10T02:33:20;8.84;53.93
79494;SHT31;68951;53.130;18.104;2023-05-10T02:35:49;8.83;54.00
79494;SHT31;68951;53.130;18.104;2023-05-10T02:38:18;8.83;54.06
79494;SHT31;68951;53.130;18.104;2023-05-10T02:40:47;8.79;54.12
79494;SHT31;68951;53.130;18.104;2023-05-10T02:43:15;8.75;54.19
79494;SHT31;68951;53.130;18.104;2023-05-10T02:45:44;8.75;54.23
79494;SHT31;68951;53.130;18.104;2023-05-10T02:48:14;8.74;54.30
79494;SHT31;68951;53.130;18.104;2023-05-10T02:50:43;8.71;54.32
79494;SHT31;68951;53.130;18.104;2023-05-10T02:53:15;8.68;54.40
79494;SHT31;68951;53.130;18.104;2023-05-10T02:55:50;8.67;54.48
79494;SHT31;68951;53.130;18.104;2023-05-10T02:58:18;8.65;54.50
79494;SHT31;68951;53.130;18.104;2023-05-10T03:00:45;8.63;54.58
79494;SHT31;68951;53.130;18.104;2023-05-10T03:03:12;8.61;54.63
79494;SHT31;68951;53.130;18.104;2023-05-10T03:05:39;8.59;54.69
79494;SHT31;68951;53.130;18.104;2023-05-10T03:08:06;8.57;54.76
79494;SHT31;68951;53.130;18.104;2023-05-10T03:10:33;8.57;54.81
79494;SHT31;68951;53.130;18.104;2023-05-10T03:16:07;8.56;54.90
79494;SHT31;68951;53.130;18.104;2023-05-10T03:18:52;8.56;54.97
79494;SHT31;68951;53.130;18.104;2023-05-10T03:21:25;8.59;55.02
79494;SHT31;68951;53.130;18.104;2023-05-10T03:24:03;8.60;55.08
79494;SHT31;68951;53.130;18.104;2023-05-10T03:26:34;8.61;55.10
79494;SHT31;68951;53.130;18.104;2023-05-10T03:29:03;8.62;55.12
79494;SHT31;68951;53.130;18.104;2023-05-10T03:31:32;8.64;55.18
79494;SHT31;68951;53.130;18.104;2023-05-10T03:33:59;8.68;55.20
79494;SHT31;68951;53.130;18.104;2023-05-10T03:36:26;8.70;55.20
79494;SHT31;68951;53.130;18.104;2023-05-10T03:38:53;8.73;55.23
79494;SHT31;68951;53.130;18.104;2023-05-10T03:41:20;8.74;55.29
79494;SHT31;68951;53.130;18.104;2023-05-10T03:43:47;8.77;55.30
79494;SHT31;68951;53.130;18.104;2023-05-10T03:46:14;8.79;55.30
79494;SHT31;68951;53.130;18.104;2023-05-10T03:48:41;8.83;55.30
79494;SHT31;68951;53.130;18.104;2023-05-10T03:51:07;8.87;55.29
79494;SHT31;68951;53.130;18.104;2023-05-10T03:53:34;8.90;55.22
79494;SHT31;68951;53.130;18.104;2023-05-10T03:56:01;8.93;55.20
79494;SHT31;68951;53.130;18.104;2023-05-10T03:58:28;8.97;55.20
79494;SHT31;68951;53.130;18.104;2023-05-10T04:00:55;9.01;55.19
79494;SHT31;68951;53.130;18.104;2023-05-10T04:03:22;9.04;55.16
79494;SHT31;68951;53.130;18.104;2023-05-10T04:05:57;9.07;55.18
79494;SHT31;68951;53.130;18.104;2023-05-10T04:08:27;9.11;55.11
79494;SHT31;68951;53.130;18.104;2023-05-10T04:10:54;9.15;55.09
79494;SHT31;68951;53.130;18.104;2023-05-10T04:13:32;9.19;55.02
79494;SHT31;68951;53.130;18.104;2023-05-10T04:16:00;9.21;55.00
79494;SHT31;68951;53.130;18.104;2023-05-10T04:18:27;9.27;54.99
79494;SHT31;68951;53.130;18.104;2023-05-10T04:20:54;9.31;54.94
79494;SHT31;68951;53.130;18.104;2023-05-10T04:23:20;9.35;54.91
79494;SHT31;68951;53.130;18.104;2023-05-10T04:25:47;9.41;54.92
79494;SHT31;68951;53.130;18.104;2023-05-10T04:28:14;9.48;54.89
79494;SHT31;68951;53.130;18.104;2023-05-10T04:30:41;9.55;54.83
79494;SHT31;68951;53.130;18.104;2023-05-10T04:33:08;9.61;54.72
79494;SHT31;68951;53.130;18.104;2023-05-10T04:35:35;9.67;54.70
79494;SHT31;68951;53.130;18.104;2023-05-10T04:38:01;9.73;54.62
79494;SHT31;68951;53.130;18.104;2023-05-10T04:40:28;9.80;54.53
79494;SHT31;68951;53.130;18.104;2023-05-10T04:42:55;9.86;54.41
79494;SHT31;68951;53.130;18.104;2023-05-10T04:45:22;9.94;54.29
79494;SHT31;68951;53.130;18.104;2023-05-10T04:47:49;10.01;54.16
79494;SHT31;68951;53.130;18.104;2023-05-10T04:50:15;10.07;54.05
79494;SHT31;68951;53.130;18.104;2023-05-10T04:52:42;10.13;53.89
79494;SHT31;68951;53.130;18.104;2023-05-10T04:55:09;10.20;53.76
79494;SHT31;68951;53.130;18.104;2023-05-10T04:57:36;10.29;53.64
79494;SHT31;68951;53.130;18.104;2023-05-10T05:00:03;10.35;53.57
79494;SHT31;68951;53.130;18.104;2023-05-10T05:02:30;10.44;53.41
79494;SHT31;68951;53.130;18.104;2023-05-10T05:04:57;10.52;53.30
79494;SHT31;68951;53.130;18.104;2023-05-10T05:07:24;10.61;53.20
79494;SHT31;68951;53.130;18.104;2023-05-10T05:09:51;10.72;53.09
79494;SHT31;68951;53.130;18.104;2023-05-10T05:12:18;10.82;52.97
79494;SHT31;68951;53.130;18.104;2023-05-10T05:14:45;10.91;52.81
79494;SHT31;68951;53.130;18.104;2023-05-10T05:17:11;11.00;52.62
79494;SHT31;68951;53.130;18.104;2023-05-10T05:19:38;11.10;52.50
79494;SHT31;68951;53.130;18.104;2023-05-10T05:22:06;11.17;52.36
79494;SHT31;68951;53.130;18.104;2023-05-10T05:24:34;11.27;52.22
79494;SHT31;68951;53.130;18.104;2023-05-10T05:27:04;11.38;52.10
79494;SHT31;68951;53.130;18.104;2023-05-10T05:29:32;11.48;51.93
79494;SHT31;68951;53.130;18.104;2023-05-10T05:31:59;11.60;51.78
79494;SHT31;68951;53.130;18.104;2023-05-10T05:34:26;11.70;51.60
79494;SHT31;68951;53.130;18.104;2023-05-10T05:36:53;11.79;51.38
79494;SHT31;68951;53.130;18.104;2023-05-10T05:39:20;11.87;51.19
79494;SHT31;68951;53.130;18.104;2023-05-10T05:41:47;11.98;51.02
79494;SHT31;68951;53.130;18.104;2023-05-10T05:44:14;12.08;50.81
79494;SHT31;68951;53.130;18.104;2023-05-10T05:46:40;12.16;50.62
79494;SHT31;68951;53.130;18.104;2023-05-10T05:49:07;12.25;50.40
79494;SHT31;68951;53.130;18.104;2023-05-10T05:51:34;12.34;50.17
79494;SHT31;68951;53.130;18.104;2023-05-10T05:54:01;12.44;49.94
79494;SHT31;68951;53.130;18.104;2023-05-10T05:56:30;12.52;49.76
79494;SHT31;68951;53.130;18.104;2023-05-10T05:58:57;12.61;49.53
79494;SHT31;68951;53.130;18.104;2023-05-10T06:01:24;12.71;49.40
79494;SHT31;68951;53.130;18.104;2023-05-10T06:03:51;12.83;49.25
79494;SHT31;68951;53.130;18.104;2023-05-10T06:06:17;12.95;49.04
79494;SHT31;68951;53.130;18.104;2023-05-10T06:08:44;13.05;48.77
79494;SHT31;68951;53.130;18.104;2023-05-10T06:11:11;13.14;48.50
79494;SHT31;68951;53.130;18.104;2023-05-10T06:13:38;13.24;48.31
79494;SHT31;68951;53.130;18.104;2023-05-10T06:16:05;13.33;48.06
79494;SHT31;68951;53.130;18.104;2023-05-10T06:18:32;13.44;47.87
79494;SHT31;68951;53.130;18.104;2023-05-10T06:20:59;13.57;47.72
79494;SHT31;68951;53.130;18.104;2023-05-10T06:23:26;13.65;47.42
79494;SHT31;68951;53.130;18.104;2023-05-10T06:25:53;13.73;47.12
79494;SHT31;68951;53.130;18.104;2023-05-10T06:28:20;13.81;46.80
79494;SHT31;68951;53.130;18.104;2023-05-10T06:30:47;13.91;46.63
79494;SHT31;68951;53.130;18.104;2023-05-10T06:33:14;14.01;46.36
79494;SHT31;68951;53.130;18.104;2023-05-10T06:35:42;14.10;46.05
79494;SHT31;68951;53.130;18.104;2023-05-10T06:38:09;14.22;45.85
79494;SHT31;68951;53.130;18.104;2023-05-10T06:40:36;14.31;45.60
79494;SHT31;68951;53.130;18.104;2023-05-10T06:43:03;14.40;45.28
79494;SHT31;68951;53.130;18.104;2023-05-10T06:45:30;14.48;44.99
79494;SHT31;68951;53.130;18.104;2023-05-10T06:47:56;14.56;44.79
79494;SHT31;68951;53.130;18.104;2023-05-10T06:50:23;14.65;44.59
79494;SHT31;68951;53.130;18.104;2023-05-10T06:52:50;14.74;44.36
79494;SHT31;68951;53.130;18.104;2023-05-10T06:55:17;14.85;44.13
79494;SHT31;68951;53.130;18.104;2023-05-10T06:57:44;14.91;43.88
79494;SHT31;68951;53.130;18.104;2023-05-10T07:00:11;14.99;43.68
79494;SHT31;68951;53.130;18.104;2023-05-10T07:02:39;15.06;43.39
79494;SHT31;68951;53.130;18.104;2023-05-10T07:05:06;15.14;43.21
79494;SHT31;68951;53.130;18.104;2023-05-10T07:07:33;15.23;43.12
79494;SHT31;68951;53.130;18.104;2023-05-10T07:10:00;15.30;42.80
79494;SHT31;68951;53.130;18.104;2023-05-10T07:12:27;15.38;42.65
79494;SHT31;68951;53.130;18.104;2023-05-10T07:14:54;15.47;42.48
79494;SHT31;68951;53.130;18.104;2023-05-10T07:17:21;15.55;42.30
79494;SHT31;68951;53.130;18.104;2023-05-10T07:19:48;15.64;42.13
79494;SHT31;68951;53.130;18.104;2023-05-10T07:22:15;15.69;42.00
79494;SHT31;68951;53.130;18.104;2023-05-10T07:24:43;15.73;41.82
79494;SHT31;68951;53.130;18.104;2023-05-10T07:27:10;15.84;41.75
79494;SHT31;68951;53.130;18.104;2023-05-10T07:29:37;15.92;41.54
79494;SHT31;68951;53.130;18.104;2023-05-10T07:32:04;15.99;41.28
79494;SHT31;68951;53.130;18.104;2023-05-10T07:34:32;16.08;41.02
79494;SHT31;68951;53.130;18.104;2023-05-10T07:36:59;16.15;40.89
79494;SHT31;68951;53.130;18.104;2023-05-10T07:39:26;16.24;40.78
79494;SHT31;68951;53.130;18.104;2023-05-10T07:41:54;16.37;40.80
79494;SHT31;68951;53.130;18.104;2023-05-10T07:44:22;16.50;40.78
79494;SHT31;68951;53.130;18.104;2023-05-10T07:46:49;16.58;40.41
79494;SHT31;68951;53.130;18.104;2023-05-10T07:49:16;16.60;40.16
79494;SHT31;68951;53.130;18.104;2023-05-10T07:51:43;16.67;39.99
79494;SHT31;68951;53.130;18.104;2023-05-10T07:54:10;16.76;39.81
79494;SHT31;68951;53.130;18.104;2023-05-10T07:56:37;16.82;39.58
79494;SHT31;68951;53.130;18.104;2023-05-10T07:59:03;16.86;39.28
79494;SHT31;68951;53.130;18.104;2023-05-10T08:01:33;16.91;39.09
79494;SHT31;68951;53.130;18.104;2023-05-10T08:04:01;16.94;38.86
79494;SHT31;68951;53.130;18.104;2023-05-10T08:06:28;17.00;38.80
79494;SHT31;68951;53.130;18.104;2023-05-10T08:08:56;17.09;38.75
79494;SHT31;68951;53.130;18.104;2023-05-10T08:11:23;17.16;38.58
79494;SHT31;68951;53.130;18.104;2023-05-10T08:13:50;17.24;38.41
79494;SHT31;68951;53.130;18.104;2023-05-10T08:16:17;17.32;38.29
79494;SHT31;68951;53.130;18.104;2023-05-10T08:18:45;17.38;38.01
79494;SHT31;68951;53.130;18.104;2023-05-10T08:21:13;17.47;37.90
79494;SHT31;68951;53.130;18.104;2023-05-10T08:23:41;17.56;37.78
79494;SHT31;68951;53.130;18.104;2023-05-10T08:26:09;17.62;37.57
79494;SHT31;68951;53.130;18.104;2023-05-10T08:28:37;17.68;37.39
79494;SHT31;68951;53.130;18.104;2023-05-10T08:31:04;17.75;37.27
79494;SHT31;68951;53.130;18.104;2023-05-10T08:33:31;17.81;37.11
79494;SHT31;68951;53.130;18.104;2023-05-10T08:35:58;17.95;37.12
79494;SHT31;68951;53.130;18.104;2023-05-10T08:38:25;18.06;36.98
79494;SHT31;68951;53.130;18.104;2023-05-10T08:40:53;18.17;36.83
79494;SHT31;68951;53.130;18.104;2023-05-10T08:43:23;18.27;36.64
79494;SHT31;68951;53.130;18.104;2023-05-10T08:45:55;18.37;36.54
79494;SHT31;68951;53.130;18.104;2023-05-10T08:48:23;18.42;36.26
79494;SHT31;68951;53.130;18.104;2023-05-10T08:50:52;18.52;36.20
79494;SHT31;68951;53.130;18.104;2023-05-10T08:53:23;18.66;36.15
79494;SHT31;68951;53.130;18.104;2023-05-10T08:55:52;18.82;36.00
79494;SHT31;68951;53.130;18.104;2023-05-10T08:58:19;18.92;35.74
79494;SHT31;68951;53.130;18.104;2023-05-10T09:00:48;19.05;35.59
79494;SHT31;68951;53.130;18.104;2023-05-10T09:03:17;19.20;35.51
79494;SHT31;68951;53.130;18.104;2023-05-10T09:05:44;19.32;35.33
79494;SHT31;68951;53.130;18.104;2023-05-10T09:08:12;19.47;35.32
79494;SHT31;68951;53.130;18.104;2023-05-10T09:10:40;19.64;35.20
79494;SHT31;68951;53.130;18.104;2023-05-10T09:13:09;19.77;35.00
79494;SHT31;68951;53.130;18.104;2023-05-10T09:15:40;19.92;34.84
79494;SHT31;68951;53.130;18.104;2023-05-10T09:18:07;20.01;34.63
79494;SHT31;68951;53.130;18.104;2023-05-10T09:20:34;20.11;34.48
79494;SHT31;68951;53.130;18.104;2023-05-10T09:23:01;20.19;34.23
79494;SHT31;68951;53.130;18.104;2023-05-10T09:25:28;20.17;34.00
79494;SHT31;68951;53.130;18.104;2023-05-10T09:27:55;20.14;33.70
79494;SHT31;68951;53.130;18.104;2023-05-10T09:30:24;20.31;33.70
79494;SHT31;68951;53.130;18.104;2023-05-10T09:32:54;20.38;33.49
79494;SHT31;68951;53.130;18.104;2023-05-10T09:35:23;20.53;33.49
79494;SHT31;68951;53.130;18.104;2023-05-10T09:37:54;20.72;33.34
79494;SHT31;68951;53.130;18.104;2023-05-10T09:40:24;20.82;33.11
79494;SHT31;68951;53.130;18.104;2023-05-10T09:45:29;21.14;32.79
79494;SHT31;68951;53.130;18.104;2023-05-10T09:47:59;21.19;32.52
79494;SHT31;68951;53.130;18.104;2023-05-10T09:50:29;21.26;32.41
79494;SHT31;68951;53.130;18.104;2023-05-10T09:52:57;21.52;32.48
79494;SHT31;68951;53.130;18.104;2023-05-10T09:55:43;21.86;32.34
79494;SHT31;68951;53.130;18.104;2023-05-10T09:58:13;22.08;31.98
79494;SHT31;68951;53.130;18.104;2023-05-10T10:00:41;22.05;31.61
79494;SHT31;68951;53.130;18.104;2023-05-10T10:03:16;22.05;31.54
79494;SHT31;68951;53.130;18.104;2023-05-10T10:05:46;22.04;31.35
79494;SHT31;68951;53.130;18.104;2023-05-10T10:08:14;22.05;31.23
79494;SHT31;68951;53.130;18.104;2023-05-10T10:10:42;22.30;31.42
79494;SHT31;68951;53.130;18.104;2023-05-10T10:13:12;22.48;31.29
79494;SHT31;68951;53.130;18.104;2023-05-10T10:15:40;22.73;31.14
79494;SHT31;68951;53.130;18.104;2023-05-10T10:18:12;23.05;31.05
79494;SHT31;68951;53.130;18.104;2023-05-10T10:20:41;23.23;30.68
79494;SHT31;68951;53.130;18.104;2023-05-10T10:23:08;23.39;30.53
79494;SHT31;68951;53.130;18.104;2023-05-10T10:25:35;23.56;30.53
79494;SHT31;68951;53.130;18.104;2023-05-10T10:28:15;23.87;30.42
79494;SHT31;68951;53.130;18.104;2023-05-10T10:34:28;24.53;30.00
79494;SHT31;68951;53.130;18.104;2023-05-10T10:36:57;24.62;29.71
79494;SHT31;68951;53.130;18.104;2023-05-10T10:39:30;24.82;29.56
79494;SHT31;68951;53.130;18.104;2023-05-10T10:41:58;24.97;29.39
79494;SHT31;68951;53.130;18.104;2023-05-10T10:49:50;25.29;28.94
79494;SHT31;68951;53.130;18.104;2023-05-10T10:52:42;25.31;28.83
79494;SHT31;68951;53.130;18.104;2023-05-10T10:57:54;25.22;28.54
79494;SHT31;68951;53.130;18.104;2023-05-10T11:00:31;25.32;28.47
79494;SHT31;68951;53.130;18.104;2023-05-10T11:03:03;25.28;28.28
79494;SHT31;68951;53.130;18.104;2023-05-10T11:08:12;25.35;28.12
79494;SHT31;68951;53.130;18.104;2023-05-10T11:19:09;25.88;27.81
79494;SHT31;68951;53.130;18.104;2023-05-10T11:21:51;25.81;27.68
79494;SHT31;68951;53.130;18.104;2023-05-10T11:24:39;25.80;27.71
79494;SHT31;68951;53.130;18.104;2023-05-10T11:27:23;25.98;27.68
79494;SHT31;68951;53.130;18.104;2023-05-10T11:29:53;26.12;27.56
79494;SHT31;68951;53.130;18.104;2023-05-10T11:32:19;26.20;27.48
79494;SHT31;68951;53.130;18.104;2023-05-10T11:34:47;26.45;27.36
79494;SHT31;68951;53.130;18.104;2023-05-10T11:37:14;26.49;27.15
79494;SHT31;68951;53.130;18.104;2023-05-10T11:39:45;26.64;27.04
79494;SHT31;68951;53.130;18.104;2023-05-10T11:42:13;26.69;26.81
79494;SHT31;68951;53.130;18.104;2023-05-10T11:44:40;26.52;26.64
79494;SHT31;68951;53.130;18.104;2023-05-10T11:47:08;26.98;26.81
79494;SHT31;68951;53.130;18.104;2023-05-10T11:49:35;27.22;26.70
79494;SHT31;68951;53.130;18.104;2023-05-10T11:52:05;27.14;26.63
79494;SHT31;68951;53.130;18.104;2023-05-10T11:54:34;27.04;26.46
79494;SHT31;68951;53.130;18.104;2023-05-10T11:57:01;27.11;26.41
79494;SHT31;68951;53.130;18.104;2023-05-10T11:59:29;27.29;26.26
79494;SHT31;68951;53.130;18.104;2023-05-10T12:01:56;27.26;26.11
79494;SHT31;68951;53.130;18.104;2023-05-10T12:04:23;26.93;25.90
79494;SHT31;68951;53.130;18.104;2023-05-10T12:06:51;26.53;25.78
79494;SHT31;68951;53.130;18.104;2023-05-10T12:09:18;26.55;25.71
79494;SHT31;68951;53.130;18.104;2023-05-10T12:11:44;26.26;25.50
79494;SHT31;68951;53.130;18.104;2023-05-10T12:14:11;26.44;25.72
79494;SHT31;68951;53.130;18.104;2023-05-10T12:16:38;26.66;25.68
79494;SHT31;68951;53.130;18.104;2023-05-10T12:19:06;26.80;25.65
79494;SHT31;68951;53.130;18.104;2023-05-10T12:21:32;27.37;25.66
79494;SHT31;68951;53.130;18.104;2023-05-10T12:24:01;27.59;25.44
79494;SHT31;68951;53.130;18.104;2023-05-10T12:26:29;27.69;25.21
79494;SHT31;68951;53.130;18.104;2023-05-10T12:29:15;27.71;25.11
79494;SHT31;68951;53.130;18.104;2023-05-10T12:31:54;27.95;25.08
79494;SHT31;68951;53.130;18.104;2023-05-10T12:34:32;28.17;24.91
79494;SHT31;68951;53.130;18.104;2023-05-10T12:37:02;28.33;24.86
79494;SHT31;68951;53.130;18.104;2023-05-10T12:39:39;28.58;24.76
79494;SHT31;68951;53.130;18.104;2023-05-10T12:42:10;28.91;24.77
79494;SHT31;68951;53.130;18.104;2023-05-10T12:44:38;29.14;24.63
79494;SHT31;68951;53.130;18.104;2023-05-10T12:47:05;29.34;24.48
79494;SHT31;68951;53.130;18.104;2023-05-10T12:49:32;29.21;24.21
79494;SHT31;68951;53.130;18.104;2023-05-10T12:52:00;29.16;24.20
79494;SHT31;68951;53.130;18.104;2023-05-10T12:54:26;29.08;24.12
79494;SHT31;68951;53.130;18.104;2023-05-10T12:56:54;29.14;24.01
79494;SHT31;68951;53.130;18.104;2023-05-10T12:59:21;28.97;23.99
79494;SHT31;68951;53.130;18.104;2023-05-10T13:01:49;29.18;24.13
79494;SHT31;68951;53.130;18.104;2023-05-10T13:04:16;29.44;24.13
79494;SHT31;68951;53.130;18.104;2023-05-10T13:06:42;29.55;23.94
79494;SHT31;68951;53.130;18.104;2023-05-10T13:09:09;29.03;23.72
79494;SHT31;68951;53.130;18.104;2023-05-10T13:11:36;28.97;23.81
79494;SHT31;68951;53.130;18.104;2023-05-10T13:14:03;28.99;23.82
79494;SHT31;68951;53.130;18.104;2023-05-10T13:16:30;28.91;23.79
79494;SHT31;68951;53.130;18.104;2023-05-10T13:18:58;28.59;23.80
79494;SHT31;68951;53.130;18.104;2023-05-10T13:21:25;28.57;24.05
79494;SHT31;68951;53.130;18.104;2023-05-10T13:23:53;28.67;24.10
79494;SHT31;68951;53.130;18.104;2023-05-10T13:26:20;28.89;23.97
79494;SHT31;68951;53.130;18.104;2023-05-10T13:28:47;29.01;23.86
79494;SHT31;68951;53.130;18.104;2023-05-10T13:31:15;28.95;23.85
79494;SHT31;68951;53.130;18.104;2023-05-10T13:33:42;29.02;23.90
79494;SHT31;68951;53.130;18.104;2023-05-10T13:36:09;29.28;23.93
79494;SHT31;68951;53.130;18.104;2023-05-10T13:38:36;29.24;23.85
79494;SHT31;68951;53.130;18.104;2023-05-10T13:41:03;29.38;23.91
79494;SHT31;68951;53.130;18.104;2023-05-10T13:43:31;29.58;23.86
79494;SHT31;68951;53.130;18.104;2023-05-10T13:45:58;29.37;23.84
79494;SHT31;68951;53.130;18.104;2023-05-10T13:48:25;28.94;23.86
79494;SHT31;68951;53.130;18.104;2023-05-10T13:50:52;28.64;23.91
79494;SHT31;68951;53.130;18.104;2023-05-10T13:53:19;28.57;23.99
79494;SHT31;68951;53.130;18.104;2023-05-10T13:55:46;28.50;24.03
79494;SHT31;68951;53.130;18.104;2023-05-10T13:58:13;28.46;24.13
79494;SHT31;68951;53.130;18.104;2023-05-10T14:00:40;28.72;24.29
79494;SHT31;68951;53.130;18.104;2023-05-10T14:03:07;28.79;24.21
79494;SHT31;68951;53.130;18.104;2023-05-10T14:05:37;28.68;24.19
79494;SHT31;68951;53.130;18.104;2023-05-10T14:08:04;28.50;24.27
79494;SHT31;68951;53.130;18.104;2023-05-10T14:10:31;28.50;24.34
79494;SHT31;68951;53.130;18.104;2023-05-10T14:12:58;28.35;24.41
79494;SHT31;68951;53.130;18.104;2023-05-10T14:15:25;28.14;24.45
79494;SHT31;68951;53.130;18.104;2023-05-10T14:17:52;28.20;24.51
79494;SHT31;68951;53.130;18.104;2023-05-10T14:20:19;28.33;24.60
79494;SHT31;68951;53.130;18.104;2023-05-10T14:22:46;28.45;24.63
79494;SHT31;68951;53.130;18.104;2023-05-10T14:25:13;28.51;24.63
79494;SHT31;68951;53.130;18.104;2023-05-10T14:27:40;28.34;24.66
79494;SHT31;68951;53.130;18.104;2023-05-10T14:30:07;27.97;24.65
79494;SHT31;68951;53.130;18.104;2023-05-10T14:32:35;27.64;24.78
79494;SHT31;68951;53.130;18.104;2023-05-10T14:35:03;27.09;24.94
79494;SHT31;68951;53.130;18.104;2023-05-10T14:37:30;26.49;25.18
79494;SHT31;68951;53.130;18.104;2023-05-10T14:39:57;25.88;25.39
79494;SHT31;68951;53.130;18.104;2023-05-10T14:42:24;25.50;25.60
79494;SHT31;68951;53.130;18.104;2023-05-10T14:44:52;25.22;25.81
79494;SHT31;68951;53.130;18.104;2023-05-10T14:47:18;25.03;26.06
79494;SHT31;68951;53.130;18.104;2023-05-10T14:49:45;24.71;26.29
79494;SHT31;68951;53.130;18.104;2023-05-10T14:52:13;24.48;26.51
79494;SHT31;68951;53.130;18.104;2023-05-10T14:54:40;24.35;26.68
79494;SHT31;68951;53.130;18.104;2023-05-10T14:57:07;24.27;26.84
79494;SHT31;68951;53.130;18.104;2023-05-10T14:59:34;24.26;26.98
79494;SHT31;68951;53.130;18.104;2023-05-10T15:02:02;24.13;27.16
79494;SHT31;68951;53.130;18.104;2023-05-10T15:04:30;24.04;27.28
79494;SHT31;68951;53.130;18.104;2023-05-10T15:06:57;23.86;27.40
79494;SHT31;68951;53.130;18.104;2023-05-10T15:09:25;23.73;27.57
79494;SHT31;68951;53.130;18.104;2023-05-10T15:11:54;23.65;27.71
79494;SHT31;68951;53.130;18.104;2023-05-10T15:14:23;23.56;27.88
79494;SHT31;68951;53.130;18.104;2023-05-10T15:16:50;23.47;28.06
79494;SHT31;68951;53.130;18.104;2023-05-10T15:19:17;23.34;28.23
79494;SHT31;68951;53.130;18.104;2023-05-10T15:21:46;23.22;28.36
79494;SHT31;68951;53.130;18.104;2023-05-10T15:24:13;23.04;28.48
79494;SHT31;68951;53.130;18.104;2023-05-10T15:26:40;22.90;28.60
79494;SHT31;68951;53.130;18.104;2023-05-10T15:29:08;22.82;28.72
79494;SHT31;68951;53.130;18.104;2023-05-10T15:31:35;22.67;28.85
79494;SHT31;68951;53.130;18.104;2023-05-10T15:34:02;22.48;28.99
79494;SHT31;68951;53.130;18.104;2023-05-10T15:36:29;22.26;29.06
79494;SHT31;68951;53.130;18.104;2023-05-10T15:38:58;22.14;29.20
79494;SHT31;68951;53.130;18.104;2023-05-10T15:41:27;21.94;29.27
79494;SHT31;68951;53.130;18.104;2023-05-10T15:43:54;21.82;29.43
79494;SHT31;68951;53.130;18.104;2023-05-10T15:46:21;21.75;29.55
79494;SHT31;68951;53.130;18.104;2023-05-10T15:48:48;21.62;29.68
79494;SHT31;68951;53.130;18.104;2023-05-10T15:51:15;21.42;29.79
79494;SHT31;68951;53.130;18.104;2023-05-10T15:53:42;21.27;29.99
79494;SHT31;68951;53.130;18.104;2023-05-10T15:56:09;21.16;30.13
79494;SHT31;68951;53.130;18.104;2023-05-10T15:58:37;21.09;30.28
79494;SHT31;68951;53.130;18.104;2023-05-10T16:01:06;21.07;30.45
79494;SHT31;68951;53.130;18.104;2023-05-10T16:03:33;21.00;30.63